Time;durP1;ratioP1;P1;durP2;ratioP2;P2;SDS_P1;SDS_P2;PMS_P1;PMS_P2;Temp;Humidity;BMP_temperature;BMP_pressure;BME280_temperature;BME280_humidity;BME280_pressure;Samples;Min_cycle;Max_cycle;Signal;HPM_P1;HPM_P2
2024/01/11 00:02:09;;;;;;;22.60;11.57;;;;;;;;;;4810850;29;20492;-73
2024/01/11 00:04:36;;;;;;;21.92;11.38;;;;;;;;;;4802960;29;20051;-72
2024/01/11 00:07:02;;;;;;;28.50;12.88;;;;;;;;;;4815404;29;20558;-74
2024/01/11 00:09:29;;;;;;;26.00;11.32;;;;;;;;;;4800023;29;20047;-73
2024/01/11 00:11:55;;;;;;;23.55;12.05;;;;;;;;;;4793391;29;20066;-74
2024/01/11 00:14:22;;;;;;;25.73;12.00;;;;;;;;;;4803649;29;20137;-72
2024/01/11 00:16:48;;;;;;;25.20;12.27;;;;;;;;;;4788328;29;20057;-75
2024/01/11 00:19:15;;;;;;;22.52;11.73;;;;;;;;;;4784978;29;20086;-74
2024/01/11 00:21:41;;;;;;;25.52;12.13;;;;;;;;;;4801197;29;20047;-76
2024/01/11 00:24:07;;;;;;;23.85;11.00;;;;;;;;;;4792758;29;20050;-75
2024/01/11 00:26:34;;;;;;;25.23;12.27;;;;;;;;;;4778669;29;20847;-76
2024/01/11 00:29:00;;;;;;;20.25;10.48;;;;;;;;;;4801187;29;20058;-74
2024/01/11 00:31:27;;;;;;;23.15;11.93;;;;;;;;;;4783077;29;20511;-74
2024/01/11 00:33:54;;;;;;;21.92;11.02;;;;;;;;;;4806622;29;20059;-74
2024/01/11 00:36:20;;;;;;;19.70;10.50;;;;;;;;;;4800454;29;20161;-74
2024/01/11 00:38:47;;;;;;;22.35;11.02;;;;;;;;;;4789811;29;20083;-75
2024/01/11 00:41:13;;;;;;;26.88;12.60;;;;;;;;;;4795264;29;20059;-75
2024/01/11 00:43:39;;;;;;;20.73;11.45;;;;;;;;;;4793863;29;20076;-74
2024/01/11 00:46:06;;;;;;;25.17;11.30;;;;;;;;;;4799451;29;20055;-76
2024/01/11 00:48:32;;;;;;;23.70;10.65;;;;;;;;;;4812700;29;20046;-75
2024/01/11 00:50:59;;;;;;;26.50;11.27;;;;;;;;;;4792615;29;20126;-75
2024/01/11 00:53:30;;;;;;;21.88;11.00;;;;;;;;;;4801855;29;20058;-75
2024/01/11 00:55:57;;;;;;;22.40;10.75;;;;;;;;;;4788287;29;20480;-75
2024/01/11 00:58:24;;;;;;;20.33;10.30;;;;;;;;;;4799937;29;20138;-74
2024/01/11 01:00:52;;;;;;;22.35;10.88;;;;;;;;;;4801943;29;20412;-75
2024/01/11 01:03:19;;;;;;;22.42;10.88;;;;;;;;;;4791711;29;20119;-75
2024/01/11 01:05:46;;;;;;;20.45;11.05;;;;;;;;;;4799288;29;20058;-76
2024/01/11 01:08:13;;;;;;;20.73;10.73;;;;;;;;;;4790060;29;20047;-76
2024/01/11 01:10:39;;;;;;;21.08;10.40;;;;;;;;;;4796381;29;20572;-74
2024/01/11 01:13:05;;;;;;;24.55;11.32;;;;;;;;;;4794711;29;20093;-75
2024/01/11 01:15:32;;;;;;;19.35;9.50;;;;;;;;;;4813082;29;20096;-76
2024/01/11 01:17:58;;;;;;;21.00;10.50;;;;;;;;;;4798323;29;20488;-74
2024/01/11 01:20:25;;;;;;;23.20;10.40;;;;;;;;;;4780120;29;20063;-75
2024/01/11 01:22:52;;;;;;;18.42;9.88;;;;;;;;;;4784667;29;20046;-75
2024/01/11 01:25:18;;;;;;;22.27;10.80;;;;;;;;;;4786541;29;20515;-75
2024/01/11 01:27:45;;;;;;;22.58;10.20;;;;;;;;;;4798070;29;20070;-75
2024/01/11 01:30:11;;;;;;;18.45;9.32;;;;;;;;;;4798466;29;20112;-76
2024/01/11 01:32:38;;;;;;;22.08;10.18;;;;;;;;;;4796299;29;20381;-74
2024/01/11 01:35:04;;;;;;;17.88;9.60;;;;;;;;;;4797325;29;20956;-75
2024/01/11 01:37:31;;;;;;;24.27;11.05;;;;;;;;;;4779979;29;20483;-76
2024/01/11 01:39:57;;;;;;;22.95;10.13;;;;;;;;;;4789858;29;20055;-75
2024/01/11 01:42:24;;;;;;;20.88;9.88;;;;;;;;;;4790498;29;21025;-74
2024/01/11 01:44:50;;;;;;;21.05;10.65;;;;;;;;;;4789758;29;20667;-74
2024/01/11 01:47:17;;;;;;;21.02;9.63;;;;;;;;;;4798759;29;20203;-75
2024/01/11 01:49:44;;;;;;;20.55;10.20;;;;;;;;;;4790384;29;20060;-75
2024/01/11 01:52:14;;;;;;;17.85;9.52;;;;;;;;;;4789438;29;20058;-75
2024/01/11 01:54:40;;;;;;;18.60;9.63;;;;;;;;;;4791943;29;20051;-74
2024/01/11 01:57:07;;;;;;;18.75;9.73;;;;;;;;;;4811045;29;20535;-74
2024/01/11 01:59:34;;;;;;;20.17;9.80;;;;;;;;;;4796964;29;20051;-74
2024/01/11 02:02:01;;;;;;;20.52;9.75;;;;;;;;;;4795465;29;20055;-74
2024/01/11 02:04:27;;;;;;;20.80;10.10;;;;;;;;;;4812279;29;20507;-74
2024/01/11 02:06:55;;;;;;;23.60;10.90;;;;;;;;;;4784538;29;20352;-76
2024/01/11 02:09:22;;;;;;;20.73;10.35;;;;;;;;;;4803578;29;20058;-75
2024/01/11 02:11:49;;;;;;;18.40;9.70;;;;;;;;;;4793417;29;20150;-74
2024/01/11 02:14:16;;;;;;;19.63;9.75;;;;;;;;;;4801663;29;20055;-75
2024/01/11 02:16:43;;;;;;;20.17;9.85;;;;;;;;;;4805255;29;20050;-75
2024/01/11 02:19:12;;;;;;;22.10;10.85;;;;;;;;;;4799342;29;20062;-75
2024/01/11 02:21:40;;;;;;;21.00;10.75;;;;;;;;;;4800256;29;20099;-75
2024/01/11 02:24:07;;;;;;;21.67;10.00;;;;;;;;;;4796522;29;20062;-74
2024/01/11 02:26:33;;;;;;;21.38;10.68;;;;;;;;;;4815244;29;20057;-75
2024/01/11 02:29:00;;;;;;;21.15;10.05;;;;;;;;;;4798643;29;20564;-75
2024/01/11 02:31:26;;;;;;;20.52;9.60;;;;;;;;;;4808159;29;20051;-74
2024/01/11 02:33:53;;;;;;;21.58;10.20;;;;;;;;;;4814819;29;20062;-74
2024/01/11 02:36:20;;;;;;;20.40;10.18;;;;;;;;;;4797096;29;20646;-75
2024/01/11 02:38:47;;;;;;;20.45;9.77;;;;;;;;;;4800592;29;20477;-75
2024/01/11 02:41:15;;;;;;;17.95;10.02;;;;;;;;;;4796678;29;20746;-75
2024/01/11 02:43:46;;;;;;;21.48;10.68;;;;;;;;;;4806173;29;20104;-76
2024/01/11 02:46:13;;;;;;;22.23;10.85;;;;;;;;;;4807258;29;20058;-75
2024/01/11 02:48:40;;;;;;;18.60;9.60;;;;;;;;;;4807182;29;20108;-73
2024/01/11 02:51:07;;;;;;;20.52;9.25;;;;;;;;;;4810877;29;20141;-74
2024/01/11 02:53:34;;;;;;;19.95;9.73;;;;;;;;;;4796004;29;20047;-75
2024/01/11 02:56:01;;;;;;;19.85;9.65;;;;;;;;;;4794087;29;20049;-74
2024/01/11 02:58:29;;;;;;;20.45;9.68;;;;;;;;;;4793125;29;20047;-77
2024/01/11 03:00:55;;;;;;;18.73;9.13;;;;;;;;;;4794236;29;20104;-74
2024/01/11 03:03:22;;;;;;;21.38;9.60;;;;;;;;;;4810709;29;20066;-75
2024/01/11 03:05:48;;;;;;;16.92;8.07;;;;;;;;;;4792763;29;20055;-75
2024/01/11 03:08:15;;;;;;;22.42;10.48;;;;;;;;;;4802585;29;20061;-74
2024/01/11 03:10:41;;;;;;;21.38;10.23;;;;;;;;;;4809765;29;20185;-75
2024/01/11 03:13:08;;;;;;;20.92;10.15;;;;;;;;;;4797919;29;20047;-74
2024/01/11 03:15:34;;;;;;;21.98;10.30;;;;;;;;;;4801436;29;20170;-74
2024/01/11 03:18:01;;;;;;;21.40;10.05;;;;;;;;;;4795540;29;20078;-74
2024/01/11 03:20:29;;;;;;;17.83;9.75;;;;;;;;;;4815651;29;20131;-74
2024/01/11 03:22:55;;;;;;;19.87;9.53;;;;;;;;;;4795230;29;20188;-74
2024/01/11 03:25:22;;;;;;;16.70;9.10;;;;;;;;;;4798938;29;20836;-76
2024/01/11 03:27:48;;;;;;;21.88;10.52;;;;;;;;;;4807452;29;20054;-76
2024/01/11 03:30:16;;;;;;;20.85;11.02;;;;;;;;;;4794885;29;20065;-74
2024/01/11 03:32:43;;;;;;;24.83;11.40;;;;;;;;;;4801266;29;20051;-74
2024/01/11 03:35:10;;;;;;;22.27;10.23;;;;;;;;;;4794526;29;20458;-75
2024/01/11 03:37:36;;;;;;;20.73;10.10;;;;;;;;;;4814552;29;20059;-74
2024/01/11 03:40:03;;;;;;;20.42;10.27;;;;;;;;;;4792490;29;20086;-74
2024/01/11 03:42:29;;;;;;;26.70;11.10;;;;;;;;;;4797204;29;20166;-74
2024/01/11 03:44:56;;;;;;;19.77;10.00;;;;;;;;;;4799737;29;20121;-74
2024/01/11 03:47:22;;;;;;;21.15;10.05;;;;;;;;;;4794462;29;20127;-73
2024/01/11 03:49:49;;;;;;;18.50;10.32;;;;;;;;;;4801194;29;20057;-74
2024/01/11 03:52:15;;;;;;;20.70;9.98;;;;;;;;;;4799345;29;20090;-74
2024/01/11 03:54:42;;;;;;;21.40;9.95;;;;;;;;;;4792862;29;20837;-74
2024/01/11 03:57:08;;;;;;;20.40;10.35;;;;;;;;;;4806958;29;20082;-74
2024/01/11 03:59:35;;;;;;;21.50;10.45;;;;;;;;;;4794408;29;20417;-74
2024/01/11 04:02:01;;;;;;;21.13;10.45;;;;;;;;;;4798147;29;20054;-74
2024/01/11 04:04:28;;;;;;;23.95;10.88;;;;;;;;;;4800192;29;20564;-74
2024/01/11 04:06:54;;;;;;;22.85;10.93;;;;;;;;;;4793575;29;20090;-75
2024/01/11 04:09:21;;;;;;;21.42;10.02;;;;;;;;;;4792902;29;20492;-76
2024/01/11 04:11:47;;;;;;;22.33;10.95;;;;;;;;;;4809625;29;20119;-74
2024/01/11 04:14:13;;;;;;;21.02;10.13;;;;;;;;;;4799877;29;20111;-74
2024/01/11 04:16:41;;;;;;;22.63;10.68;;;;;;;;;;4806304;29;20082;-74
2024/01/11 04:19:07;;;;;;;20.92;10.80;;;;;;;;;;4814131;29;20062;-75
2024/01/11 04:21:34;;;;;;;18.10;10.30;;;;;;;;;;4782768;29;20051;-75
2024/01/11 04:24:01;;;;;;;23.45;10.70;;;;;;;;;;4787363;29;20228;-74
2024/01/11 04:26:27;;;;;;;17.98;10.38;;;;;;;;;;4790291;29;20055;-74
2024/01/11 04:28:54;;;;;;;21.63;10.95;;;;;;;;;;4791902;29;20083;-75
2024/01/11 04:31:24;;;;;;;20.25;10.45;;;;;;;;;;4799238;29;20134;-74
2024/01/11 04:33:51;;;;;;;25.02;11.73;;;;;;;;;;4795784;29;20055;-74
2024/01/11 04:36:17;;;;;;;19.48;10.60;;;;;;;;;;4785055;29;20054;-75
2024/01/11 04:38:44;;;;;;;20.63;11.18;;;;;;;;;;4806338;29;20804;-74
2024/01/11 04:41:11;;;;;;;21.48;11.50;;;;;;;;;;4798582;29;20136;-73
2024/01/11 04:43:41;;;;;;;24.02;10.35;;;;;;;;;;4799613;29;20055;-75
2024/01/11 04:46:17;;;;;;;20.65;9.88;;;;;;;;;;4794180;29;20527;-73
2024/01/11 04:48:44;;;;;;;21.13;10.82;;;;;;;;;;4798796;29;20090;-74
2024/01/11 04:51:11;;;;;;;18.38;9.90;;;;;;;;;;4791530;29;20042;-74
2024/01/11 04:53:41;;;;;;;24.35;11.15;;;;;;;;;;4807386;29;20055;-74
2024/01/11 04:56:09;;;;;;;20.85;10.65;;;;;;;;;;4799163;29;20062;-75
2024/01/11 04:58:37;;;;;;;18.38;10.30;;;;;;;;;;4785982;29;20043;-73
2024/01/11 05:01:07;;;;;;;23.65;11.05;;;;;;;;;;4800083;29;20146;-73
2024/01/11 05:03:34;;;;;;;26.15;10.82;;;;;;;;;;4793334;29;20055;-73
2024/01/11 05:06:01;;;;;;;20.77;10.73;;;;;;;;;;4793173;29;20174;-74
2024/01/11 05:08:28;;;;;;;22.73;11.30;;;;;;;;;;4792784;29;20052;-74
2024/01/11 05:10:55;;;;;;;22.58;11.95;;;;;;;;;;4789957;29;20905;-74
2024/01/11 05:13:21;;;;;;;21.90;10.68;;;;;;;;;;4798806;29;20055;-74
2024/01/11 05:15:48;;;;;;;25.48;13.02;;;;;;;;;;4793672;29;20111;-75
2024/01/11 05:18:14;;;;;;;27.42;13.90;;;;;;;;;;4813301;29;20059;-75
2024/01/11 05:20:41;;;;;;;24.48;12.00;;;;;;;;;;4794523;29;20503;-74
2024/01/11 05:23:08;;;;;;;21.70;11.25;;;;;;;;;;4786277;29;20543;-74
2024/01/11 05:25:35;;;;;;;23.10;11.10;;;;;;;;;;4812368;29;20065;-73
2024/01/11 05:28:01;;;;;;;23.08;11.38;;;;;;;;;;4805477;29;20461;-75
2024/01/11 05:30:28;;;;;;;21.65;10.98;;;;;;;;;;4795789;29;20069;-73
2024/01/11 05:32:56;;;;;;;21.77;11.73;;;;;;;;;;4789189;29;20051;-74
2024/01/11 05:35:24;;;;;;;23.58;11.77;;;;;;;;;;4813313;29;20882;-75
2024/01/11 05:37:50;;;;;;;23.35;10.98;;;;;;;;;;4798427;29;20110;-74
2024/01/11 05:40:16;;;;;;;20.88;11.05;;;;;;;;;;4793969;29;20054;-75
2024/01/11 05:42:43;;;;;;;23.33;11.95;;;;;;;;;;4798614;29;20050;-75
2024/01/11 05:45:10;;;;;;;27.45;12.60;;;;;;;;;;4802016;29;20402;-74
2024/01/11 05:47:37;;;;;;;20.50;10.85;;;;;;;;;;4793580;29;20086;-74
2024/01/11 05:50:03;;;;;;;25.55;11.48;;;;;;;;;;4797973;29;20058;-75
2024/01/11 05:52:30;;;;;;;27.27;12.98;;;;;;;;;;4804922;29;20546;-74
2024/01/11 05:54:56;;;;;;;23.65;11.55;;;;;;;;;;4785919;29;20087;-74
2024/01/11 05:57:23;;;;;;;26.33;12.38;;;;;;;;;;4791567;29;20086;-74
2024/01/11 05:59:49;;;;;;;24.27;12.77;;;;;;;;;;4800268;29;20055;-74
2024/01/11 06:02:16;;;;;;;30.00;14.00;;;;;;;;;;4783641;29;20043;-73
2024/01/11 06:04:42;;;;;;;26.83;12.50;;;;;;;;;;4795711;29;20595;-76
2024/01/11 06:07:11;;;;;;;;;;;;;;;;;;4799662;29;20515;-75
2024/01/11 06:09:37;;;;;;;23.65;12.23;;;;;;;;;;4794258;29;19930;-75
2024/01/11 06:12:04;;;;;;;23.23;11.65;;;;;;;;;;4795023;29;20071;-75
2024/01/11 06:14:30;;;;;;;24.85;12.20;;;;;;;;;;4804762;29;20477;-74
2024/01/11 06:16:57;;;;;;;21.63;11.88;;;;;;;;;;4798785;29;20062;-76
2024/01/11 06:19:23;;;;;;;26.17;12.70;;;;;;;;;;4798263;29;20137;-75
2024/01/11 06:21:50;;;;;;;23.10;12.32;;;;;;;;;;4793294;29;20508;-74
2024/01/11 06:24:16;;;;;;;24.77;12.85;;;;;;;;;;4799418;29;20062;-74
2024/01/11 06:26:43;;;;;;;24.10;12.57;;;;;;;;;;4804069;29;20066;-74
2024/01/11 06:29:09;;;;;;;25.98;12.70;;;;;;;;;;4794666;29;20059;-74
2024/01/11 06:31:36;;;;;;;29.95;14.85;;;;;;;;;;4794207;29;20051;-75
2024/01/11 06:34:02;;;;;;;25.65;13.82;;;;;;;;;;4792005;29;20691;-75
2024/01/11 06:36:29;;;;;;;28.73;14.32;;;;;;;;;;4799594;29;20157;-75
2024/01/11 06:38:56;;;;;;;25.35;12.98;;;;;;;;;;4806806;29;20050;-74
2024/01/11 06:41:22;;;;;;;29.88;13.30;;;;;;;;;;4795335;29;20051;-73
2024/01/11 06:43:49;;;;;;;23.17;11.95;;;;;;;;;;4786413;29;20110;-76
2024/01/11 06:46:20;;;;;;;26.10;13.07;;;;;;;;;;4795679;29;20104;-75
2024/01/11 06:48:47;;;;;;;24.95;13.55;;;;;;;;;;4793183;29;20047;-75
2024/01/11 06:51:20;;;;;;;28.08;13.82;;;;;;;;;;4807419;29;20112;-76
2024/01/11 06:53:47;;;;;;;25.88;13.70;;;;;;;;;;4810948;29;20059;-75
2024/01/11 06:56:17;;;;;;;28.67;13.73;;;;;;;;;;4779597;29;20158;-75
2024/01/11 06:58:44;;;;;;;21.27;12.35;;;;;;;;;;4797253;29;20047;-75
2024/01/11 07:01:10;;;;;;;24.88;12.85;;;;;;;;;;4803141;29;20062;-75
2024/01/11 07:03:37;;;;;;;25.13;14.10;;;;;;;;;;4814853;29;20063;-74
2024/01/11 07:06:04;;;;;;;25.77;13.57;;;;;;;;;;4792944;29;20092;-75
2024/01/11 07:08:32;;;;;;;26.63;13.63;;;;;;;;;;4800062;29;20120;-76
2024/01/11 07:11:04;;;;;;;26.95;13.93;;;;;;;;;;4795122;29;20134;-75
2024/01/11 07:13:31;;;;;;;20.65;12.52;;;;;;;;;;4803876;29;20047;-76
2024/01/11 07:15:58;;;;;;;24.13;13.18;;;;;;;;;;4795543;29;20066;-75
2024/01/11 07:18:24;;;;;;;29.15;13.80;;;;;;;;;;4797674;29;20134;-75
2024/01/11 07:20:52;;;;;;;25.05;14.02;;;;;;;;;;4803504;29;20054;-75
2024/01/11 07:23:18;;;;;;;27.38;13.27;;;;;;;;;;4799738;29;20450;-75
2024/01/11 07:25:45;;;;;;;29.45;15.00;;;;;;;;;;4794450;29;20069;-76
2024/01/11 07:28:12;;;;;;;25.55;14.15;;;;;;;;;;4803000;29;20134;-75
2024/01/11 07:30:39;;;;;;;30.90;13.65;;;;;;;;;;4798938;29;20512;-75
2024/01/11 07:33:06;;;;;;;25.85;14.40;;;;;;;;;;4814457;29;20047;-75
2024/01/11 07:35:34;;;;;;;28.50;14.88;;;;;;;;;;4806614;29;20141;-76
2024/01/11 07:38:01;;;;;;;30.73;14.55;;;;;;;;;;4813112;29;20059;-75
2024/01/11 07:40:28;;;;;;;26.10;12.95;;;;;;;;;;4803940;29;20081;-76
2024/01/11 07:42:57;;;;;;;24.15;12.95;;;;;;;;;;4810887;29;20063;-75
2024/01/11 07:45:24;;;;;;;25.27;14.45;;;;;;;;;;4816753;29;20050;-75
2024/01/11 07:47:50;;;;;;;28.15;13.75;;;;;;;;;;4801267;29;20046;-75
2024/01/11 07:50:18;;;;;;;30.33;13.68;;;;;;;;;;4814087;29;20074;-75
2024/01/11 07:52:45;;;;;;;28.55;15.00;;;;;;;;;;4812890;29;20088;-75
2024/01/11 07:55:12;;;;;;;33.17;13.80;;;;;;;;;;4791752;29;20115;-76
2024/01/11 07:57:40;;;;;;;28.77;14.77;;;;;;;;;;4804974;29;20162;-76
2024/01/11 08:00:06;;;;;;;27.38;14.45;;;;;;;;;;4789957;29;20058;-77
2024/01/11 08:02:34;;;;;;;27.33;13.80;;;;;;;;;;4815296;29;20126;-76
2024/01/11 08:05:00;;;;;;;30.73;14.45;;;;;;;;;;4800552;29;20318;-75
2024/01/11 08:07:27;;;;;;;31.27;15.10;;;;;;;;;;4795926;29;20141;-76
2024/01/11 08:09:54;;;;;;;28.15;14.95;;;;;;;;;;4797735;29;20054;-76
2024/01/11 08:12:21;;;;;;;30.13;14.50;;;;;;;;;;4810522;29;20859;-76
2024/01/11 08:14:48;;;;;;;28.60;14.57;;;;;;;;;;4813452;29;20197;-76
2024/01/11 08:17:14;;;;;;;27.20;14.63;;;;;;;;;;4795442;29;20642;-76
2024/01/11 08:19:42;;;;;;;26.98;14.65;;;;;;;;;;4792172;29;20059;-77
2024/01/11 08:22:10;;;;;;;33.22;16.20;;;;;;;;;;4796899;29;20065;-76
2024/01/11 08:24:37;;;;;;;27.45;14.55;;;;;;;;;;4808237;29;20058;-76
2024/01/11 08:27:04;;;;;;;26.35;13.82;;;;;;;;;;4807003;29;20067;-76
2024/01/11 08:29:30;;;;;;;32.05;15.57;;;;;;;;;;4785697;29;20266;-77
2024/01/11 08:31:57;;;;;;;30.00;15.18;;;;;;;;;;4801151;29;20334;-75
2024/01/11 08:34:26;;;;;;;25.30;15.20;;;;;;;;;;4800318;29;20070;-77
2024/01/11 08:36:53;;;;;;;29.63;15.88;;;;;;;;;;4791630;29;20058;-76
2024/01/11 08:39:21;;;;;;;29.52;14.85;;;;;;;;;;4797944;29;20054;-76
2024/01/11 08:41:47;;;;;;;28.52;15.50;;;;;;;;;;4810523;29;20051;-77
2024/01/11 08:44:14;;;;;;;32.50;16.05;;;;;;;;;;4799789;29;20408;-76
2024/01/11 08:46:41;;;;;;;30.40;16.42;;;;;;;;;;4813075;29;20050;-77
2024/01/11 08:49:08;;;;;;;33.40;16.48;;;;;;;;;;4794868;29;20431;-77
2024/01/11 08:51:35;;;;;;;31.75;16.77;;;;;;;;;;4796913;29;20050;-77
2024/01/11 08:54:01;;;;;;;35.70;16.70;;;;;;;;;;4794390;29;20500;-77
2024/01/11 08:56:28;;;;;;;35.90;17.45;;;;;;;;;;4801306;29;20051;-76
2024/01/11 08:58:54;;;;;;;32.72;16.60;;;;;;;;;;4796152;29;20626;-77
2024/01/11 09:01:22;;;;;;;33.88;16.88;;;;;;;;;;4794024;29;20408;-77
2024/01/11 09:03:48;;;;;;;35.63;18.05;;;;;;;;;;4787070;29;20062;-76
2024/01/11 09:06:15;;;;;;;33.95;16.40;;;;;;;;;;4781760;29;20058;-76
2024/01/11 09:08:42;;;;;;;36.55;17.42;;;;;;;;;;4803615;29;20059;-78
2024/01/11 09:11:10;;;;;;;30.10;17.45;;;;;;;;;;4794453;29;20155;-75
2024/01/11 09:13:36;;;;;;;35.17;17.70;;;;;;;;;;4812008;29;20051;-77
2024/01/11 09:16:03;;;;;;;31.80;17.50;;;;;;;;;;4800295;29;20465;-77
2024/01/11 09:18:30;;;;;;;36.25;17.95;;;;;;;;;;4805779;29;20054;-76
2024/01/11 09:20:57;;;;;;;37.58;17.67;;;;;;;;;;4797915;29;20104;-77
2024/01/11 09:23:24;;;;;;;27.38;13.93;;;;;;;;;;4782464;29;20051;-78
2024/01/11 09:25:50;;;;;;;32.25;16.92;;;;;;;;;;4793825;29;20081;-77
2024/01/11 09:28:16;;;;;;;32.45;16.63;;;;;;;;;;4792903;29;20399;-77
2024/01/11 09:30:43;;;;;;;35.28;18.23;;;;;;;;;;4807324;29;20048;-76
2024/01/11 09:33:09;;;;;;;34.67;18.33;;;;;;;;;;4786869;29;20127;-76
2024/01/11 09:35:36;;;;;;;35.10;16.77;;;;;;;;;;4789219;29;20055;-78
2024/01/11 09:38:03;;;;;;;30.83;16.30;;;;;;;;;;4796358;29;20058;-77
2024/01/11 09:40:30;;;;;;;35.10;18.05;;;;;;;;;;4802419;29;20047;-76
2024/01/11 09:42:57;;;;;;;31.58;16.80;;;;;;;;;;4796258;29;20078;-75
2024/01/11 09:45:25;;;;;;;35.72;18.48;;;;;;;;;;4797523;29;20062;-77
2024/01/11 09:47:52;;;;;;;32.07;17.30;;;;;;;;;;4790710;29;20105;-78
2024/01/11 09:50:21;;;;;;;33.47;18.13;;;;;;;;;;4809722;29;20108;-78
2024/01/11 09:52:48;;;;;;;36.53;17.63;;;;;;;;;;4806337;29;20147;-76
2024/01/11 09:55:16;;;;;;;36.78;18.52;;;;;;;;;;4799209;29;20063;-79
2024/01/11 09:57:46;;;;;;;36.60;16.67;;;;;;;;;;4799801;29;20051;-76
2024/01/11 10:00:14;;;;;;;37.10;17.35;;;;;;;;;;4807466;29;20054;-76
2024/01/11 10:02:40;;;;;;;35.35;15.95;;;;;;;;;;4793860;29;20410;-79
2024/01/11 10:05:07;;;;;;;36.50;18.02;;;;;;;;;;4804492;29;20050;-77
2024/01/11 10:07:36;;;;;;;39.55;19.83;;;;;;;;;;4800523;29;20450;-77
2024/01/11 10:10:03;;;;;;;33.47;17.42;;;;;;;;;;4791059;29;20059;-77
2024/01/11 10:12:29;;;;;;;36.33;18.25;;;;;;;;;;4813459;29;20142;-78
2024/01/11 10:15:04;;;;;;;37.03;17.90;;;;;;;;;;4810071;29;20055;-78
2024/01/11 10:17:31;;;;;;;37.90;18.10;;;;;;;;;;4800014;29;20071;-80
2024/01/11 10:19:59;;;;;;;39.58;19.52;;;;;;;;;;4795670;29;20066;-78
2024/01/11 10:22:27;;;;;;;35.03;18.33;;;;;;;;;;4776430;29;20064;-78
2024/01/11 10:25:12;;;;;;;34.35;18.80;;;;;;;;;;4811736;29;20047;-78
2024/01/11 10:27:43;;;;;;;33.53;17.08;;;;;;;;;;4779339;29;20533;-77
2024/01/11 10:30:12;;;;;;;34.75;18.63;;;;;;;;;;4798576;29;20124;-78
2024/01/11 10:32:39;;;;;;;32.70;17.77;;;;;;;;;;4805582;29;20059;-77
2024/01/11 10:35:06;;;;;;;37.25;18.90;;;;;;;;;;4796027;29;20047;-78
2024/01/11 10:37:33;;;;;;;35.10;17.95;;;;;;;;;;4815978;29;20142;-77
2024/01/11 10:40:04;;;;;;;32.90;16.70;;;;;;;;;;4796393;29;20133;-77
2024/01/11 10:42:31;;;;;;;31.98;17.50;;;;;;;;;;4800497;29;20166;-77
2024/01/11 10:44:59;;;;;;;30.02;16.90;;;;;;;;;;4810637;29;20166;-78
2024/01/11 10:47:29;;;;;;;33.40;18.10;;;;;;;;;;4795807;29;20071;-77
2024/01/11 10:49:56;;;;;;;33.13;16.98;;;;;;;;;;4801191;29;20059;-76
2024/01/11 10:52:27;;;;;;;36.20;17.70;;;;;;;;;;4798452;29;20057;-74
2024/01/11 10:54:54;;;;;;;29.42;17.20;;;;;;;;;;4802449;29;20554;-76
2024/01/11 10:57:20;;;;;;;26.50;15.35;;;;;;;;;;4794971;29;20045;-77
2024/01/11 10:59:48;;;;;;;39.13;18.05;;;;;;;;;;4786172;29;20497;-78
2024/01/11 11:02:16;;;;;;;31.98;16.67;;;;;;;;;;4810693;29;20144;-78
2024/01/11 11:04:43;;;;;;;27.67;14.02;;;;;;;;;;4789696;29;20070;-78
2024/01/11 11:07:11;;;;;;;21.05;12.32;;;;;;;;;;4801654;29;20604;-79
2024/01/11 11:09:38;;;;;;;24.83;12.45;;;;;;;;;;4794658;29;20152;-77
2024/01/11 11:12:05;;;;;;;24.80;12.25;;;;;;;;;;4789997;29;20070;-78
2024/01/11 11:14:34;;;;;;;24.55;10.75;;;;;;;;;;4803509;29;20112;-72
2024/01/11 11:17:01;;;;;;;22.17;10.57;;;;;;;;;;4795770;29;20046;-80
2024/01/11 11:19:28;;;;;;;20.98;10.55;;;;;;;;;;4816416;29;20066;-79
2024/01/11 11:21:54;;;;;;;20.15;9.52;;;;;;;;;;4802711;29;20051;-77
2024/01/11 11:24:21;;;;;;;17.88;8.18;;;;;;;;;;4801071;29;20115;-76
2024/01/11 11:26:47;;;;;;;19.75;9.68;;;;;;;;;;4792525;29;20565;-76
2024/01/11 11:29:14;;;;;;;20.63;9.13;;;;;;;;;;4795828;29;20474;-76
2024/01/11 11:31:42;;;;;;;22.80;9.43;;;;;;;;;;4795355;29;20427;-75
2024/01/11 11:34:11;;;;;;;24.70;9.55;;;;;;;;;;4806596;29;20059;-76
2024/01/11 11:36:39;;;;;;;23.50;10.40;;;;;;;;;;4794164;29;20069;-75
2024/01/11 11:39:05;;;;;;;23.93;10.97;;;;;;;;;;4795608;29;20220;-76
2024/01/11 11:41:32;;;;;;;24.15;9.80;;;;;;;;;;4805960;29;21480;-76
2024/01/11 11:44:02;;;;;;;22.92;9.95;;;;;;;;;;4808114;29;20062;-75
2024/01/11 11:46:31;;;;;;;22.40;9.60;;;;;;;;;;4799962;29;20102;-75
2024/01/11 11:48:57;;;;;;;25.42;11.88;;;;;;;;;;4819752;29;20803;-76
2024/01/11 11:51:24;;;;;;;22.77;10.40;;;;;;;;;;4813313;29;20057;-74
2024/01/11 11:53:54;;;;;;;23.90;10.63;;;;;;;;;;4801493;29;20473;-75
2024/01/11 11:56:21;;;;;;;27.25;10.93;;;;;;;;;;4799206;29;20559;-75
2024/01/11 11:58:49;;;;;;;25.92;11.52;;;;;;;;;;4809932;29;20055;-75
2024/01/11 12:01:19;;;;;;;21.52;9.70;;;;;;;;;;4804898;29;20137;-75
2024/01/11 12:03:49;;;;;;;24.80;10.77;;;;;;;;;;4797350;29;20062;-76
2024/01/11 12:06:17;;;;;;;25.90;10.63;;;;;;;;;;4794833;29;20057;-75
2024/01/11 12:08:44;;;;;;;27.48;10.93;;;;;;;;;;4802401;29;20054;-76
2024/01/11 12:11:18;;;;;;;23.40;10.68;;;;;;;;;;4797422;29;20059;-74
2024/01/11 12:13:46;;;;;;;22.58;10.40;;;;;;;;;;4805503;29;20133;-75
2024/01/11 12:16:12;;;;;;;25.63;10.95;;;;;;;;;;4801196;29;20138;-76
2024/01/11 12:18:40;;;;;;;23.40;10.07;;;;;;;;;;4803324;29;20496;-75
2024/01/11 12:21:07;;;;;;;22.17;10.75;;;;;;;;;;4808747;29;20115;-76
2024/01/11 12:23:35;;;;;;;24.77;10.68;;;;;;;;;;4796342;29;20043;-75
2024/01/11 12:26:03;;;;;;;23.00;10.20;;;;;;;;;;4793251;29;20059;-74
2024/01/11 12:28:30;;;;;;;;;;;;;;;;;;4814380;29;20050;-76
2024/01/11 12:30:56;;;;;;;26.77;10.90;;;;;;;;;;4799774;29;20375;-75
2024/01/11 12:33:24;;;;;;;26.70;12.10;;;;;;;;;;4800837;29;20054;-75
2024/01/11 12:35:51;;;;;;;28.48;12.95;;;;;;;;;;4809636;29;20057;-75
2024/01/11 12:38:18;;;;;;;24.55;11.52;;;;;;;;;;4780900;29;20142;-77
2024/01/11 12:40:45;;;;;;;24.23;10.90;;;;;;;;;;4794816;29;20058;-75
2024/01/11 12:43:12;;;;;;;26.20;11.30;;;;;;;;;;4800047;29;20066;-80
2024/01/11 12:45:39;;;;;;;36.88;16.25;;;;;;;;;;4795282;29;20055;-76
2024/01/11 12:48:08;;;;;;;32.63;14.50;;;;;;;;;;4817766;29;20146;-75
2024/01/11 12:50:35;;;;;;;31.50;13.63;;;;;;;;;;4796761;29;20630;-76
2024/01/11 12:53:06;;;;;;;27.02;12.35;;;;;;;;;;4798848;29;20066;-73
2024/01/11 12:55:36;;;;;;;25.65;10.85;;;;;;;;;;4802201;29;20675;-74
2024/01/11 12:58:22;;;;;;;23.70;10.38;;;;;;;;;;4796817;29;20127;-76
2024/01/11 13:00:49;;;;;;;26.42;11.23;;;;;;;;;;4819416;29;20111;-73
2024/01/11 13:03:16;;;;;;;26.30;10.88;;;;;;;;;;4794682;29;20050;-76
2024/01/11 13:05:43;;;;;;;26.60;10.40;;;;;;;;;;4801859;29;20424;-75
2024/01/11 13:08:09;;;;;;;21.70;9.68;;;;;;;;;;4793252;29;20579;-73
2024/01/11 13:10:36;;;;;;;21.70;9.93;;;;;;;;;;4804958;29;20078;-74
2024/01/11 13:13:03;;;;;;;23.83;10.38;;;;;;;;;;4801300;29;20084;-73
2024/01/11 13:15:36;;;;;;;21.90;9.93;;;;;;;;;;4813883;29;20070;-74
2024/01/11 13:18:02;;;;;;;22.38;9.55;;;;;;;;;;4795819;29;20061;-73
2024/01/11 13:20:29;;;;;;;27.17;11.20;;;;;;;;;;4811062;29;20047;-75
2024/01/11 13:23:20;;;;;;;24.35;9.95;;;;;;;;;;4802387;29;20499;-74
2024/01/11 13:25:49;;;;;;;22.95;9.90;;;;;;;;;;4800252;29;20062;-74
2024/01/11 13:28:16;;;;;;;23.70;10.00;;;;;;;;;;4802900;29;20055;-74
2024/01/11 13:30:43;;;;;;;22.67;10.20;;;;;;;;;;4802731;29;20062;-75
2024/01/11 13:33:14;;;;;;;23.73;10.75;;;;;;;;;;4795371;29;20718;-74
2024/01/11 13:35:42;;;;;;;22.70;11.35;;;;;;;;;;4798993;29;20051;-74
2024/01/11 13:38:09;;;;;;;;;;;;;;;;;;4798699;29;20063;-74
2024/01/11 13:40:36;;;;;;;22.02;9.73;;;;;;;;;;4802819;29;19925;-75
2024/01/11 13:43:02;;;;;;;23.88;10.60;;;;;;;;;;4788816;29;20059;-74
2024/01/11 13:45:29;;;;;;;22.67;10.35;;;;;;;;;;4816450;29;20047;-74
2024/01/11 13:47:56;;;;;;;25.50;11.00;;;;;;;;;;4794652;29;20061;-75
2024/01/11 13:50:27;;;;;;;27.60;11.77;;;;;;;;;;4795957;29;20170;-76
2024/01/11 13:52:53;;;;;;;20.42;10.05;;;;;;;;;;4805645;29;20058;-76
2024/01/11 13:55:21;;;;;;;27.23;11.15;;;;;;;;;;4787590;29;20082;-76
2024/01/11 13:57:49;;;;;;;22.55;10.57;;;;;;;;;;4801511;29;20556;-75
2024/01/11 14:00:18;;;;;;;25.33;11.35;;;;;;;;;;4796236;29;20123;-75
2024/01/11 14:02:44;;;;;;;;;;;;;;;;;;4787953;29;20653;-73
2024/01/11 14:05:13;;;;;;;22.73;10.48;;;;;;;;;;4817448;29;19958;-75
2024/01/11 14:07:40;;;;;;;23.00;10.68;;;;;;;;;;4799390;29;20047;-75
2024/01/11 14:10:08;;;;;;;21.70;10.35;;;;;;;;;;4807157;29;20050;-75
2024/01/11 14:12:35;;;;;;;25.07;11.17;;;;;;;;;;4804604;29;20059;-75
2024/01/11 14:15:03;;;;;;;28.48;11.63;;;;;;;;;;4800848;29;20108;-75
2024/01/11 14:17:30;;;;;;;27.50;12.48;;;;;;;;;;4805690;29;20097;-73
2024/01/11 14:19:56;;;;;;;27.58;11.63;;;;;;;;;;4788263;29;20048;-75
2024/01/11 14:22:24;;;;;;;30.98;12.23;;;;;;;;;;4800565;29;20112;-75